Time;durP1;ratioP1;P1;durP2;ratioP2;P2;SDS_P1;SDS_P2;PMS_P1;PMS_P2;Temp;Humidity;BMP_temperature;BMP_pressure;BME280_temperature;BME280_humidity;BME280_pressure;Samples;Min_cycle;Max_cycle;Signal;HPM_P1;HPM_P2
2022/01/08 00:00:27;;;;;;;72.97;25.63;;;;;;;-6.79;100.00;100942.70;1698704;83;21561;-72
2022/01/08 00:02:54;;;;;;;62.87;24.57;;;;;;;-6.79;100.00;100936.29;1697352;84;21030;-71
2022/01/08 00:05:21;;;;;;;60.27;23.83;;;;;;;-6.78;100.00;100936.78;1698755;84;21120;-71
2022/01/08 00:07:48;;;;;;;78.70;27.03;;;;;;;-6.76;100.00;100935.17;1698425;83;21084;-71
2022/01/08 00:10:14;;;;;;;99.70;31.80;;;;;;;-6.75;100.00;100942.91;1698685;83;21049;-70
2022/01/08 00:12:42;;;;;;;105.37;34.00;;;;;;;-6.71;100.00;100945.22;1698547;84;21084;-71
2022/01/08 00:15:09;;;;;;;100.77;31.57;;;;;;;-6.68;100.00;100936.38;1698609;84;21087;-71
2022/01/08 00:17:36;;;;;;;104.73;31.87;;;;;;;-6.65;100.00;100942.91;1699043;83;21628;-71
2022/01/08 00:20:05;;;;;;;114.33;35.97;;;;;;;-6.63;100.00;100940.02;1698624;84;21084;-73
2022/01/08 00:22:31;;;;;;;101.93;33.70;;;;;;;-6.61;100.00;100932.00;1699064;84;21052;-72
2022/01/08 00:24:58;;;;;;;94.27;33.00;;;;;;;-6.61;100.00;100924.73;1733072;82;21031;-72
2022/01/08 00:27:24;;;;;;;99.83;32.30;;;;;;;-6.63;100.00;100932.33;1709319;82;21588;-72
2022/01/08 00:29:51;;;;;;;99.97;31.53;;;;;;;-6.65;100.00;100923.70;1695441;84;21160;-73
2022/01/08 00:32:17;;;;;;;104.10;32.77;;;;;;;-6.65;100.00;100917.70;1695674;84;21053;-73
2022/01/08 00:34:44;;;;;;;77.30;26.20;;;;;;;-6.68;100.00;100919.73;1695415;84;21557;-71
2022/01/08 00:37:10;;;;;;;88.20;29.60;;;;;;;-6.70;100.00;100912.38;1695627;84;21104;-72
2022/01/08 00:39:39;;;;;;;84.47;28.47;;;;;;;-6.73;100.00;100910.97;1695609;84;21084;-73
2022/01/08 00:42:05;;;;;;;71.47;26.03;;;;;;;-6.76;100.00;100912.12;1695396;84;23272;-74
2022/01/08 00:44:32;;;;;;;71.97;26.80;;;;;;;-6.79;100.00;100914.52;1696604;84;21075;-73
2022/01/08 00:46:58;;;;;;;68.20;24.23;;;;;;;-6.83;100.00;100920.30;1699710;84;21056;-74
2022/01/08 00:49:25;;;;;;;78.37;29.10;;;;;;;-6.89;100.00;100925.16;1715997;82;21108;-74
2022/01/08 00:51:51;;;;;;;71.83;26.23;;;;;;;-6.94;100.00;100929.20;1720450;83;21116;-75
2022/01/08 00:54:18;;;;;;;80.90;26.77;;;;;;;-6.99;100.00;100921.31;1738201;82;23275;-72
2022/01/08 00:56:45;;;;;;;65.83;23.97;;;;;;;-7.00;100.00;100920.41;1738837;82;21559;-70
2022/01/08 00:59:11;;;;;;;74.90;25.53;;;;;;;-7.00;100.00;100933.21;1738458;82;21062;-70
2022/01/08 01:01:38;;;;;;;70.53;25.23;;;;;;;-7.02;100.00;100937.38;1755754;80;21096;-71
2022/01/08 01:04:04;;;;;;;79.13;29.93;;;;;;;-7.02;100.00;100936.09;1764117;81;21026;-71
2022/01/08 01:06:31;;;;;;;82.53;28.77;;;;;;;-7.03;100.00;100931.80;1764498;81;21158;-71
2022/01/08 01:08:58;;;;;;;84.80;30.57;;;;;;;-7.02;100.00;100928.83;1764136;81;21070;-71
2022/01/08 01:11:24;;;;;;;94.87;31.27;;;;;;;-7.04;100.00;100935.18;1764543;81;21335;-71
2022/01/08 01:13:50;;;;;;;74.87;27.60;;;;;;;-7.03;100.00;100935.64;1764093;81;21038;-70
2022/01/08 01:16:19;;;;;;;101.30;34.43;;;;;;;-7.03;100.00;100930.93;1764548;81;20998;-70
2022/01/08 01:18:46;;;;;;;94.00;32.40;;;;;;;-7.01;100.00;100932.75;1764493;81;21792;-69
2022/01/08 01:21:13;;;;;;;81.60;31.47;;;;;;;-7.01;100.00;100936.59;1764497;81;21648;-69
2022/01/08 01:23:42;;;;;;;73.43;28.10;;;;;;;-7.00;100.00;100935.77;1764104;81;21018;-72
2022/01/08 01:26:12;;;;;;;66.87;25.07;;;;;;;-6.97;100.00;100938.50;1760191;81;21073;-70
2022/01/08 01:47:32;;;;;;;83.93;28.43;;;;;;;-6.89;100.00;100900.84;1720609;83;21102;-71
2022/01/08 01:49:58;;;;;;;64.27;24.23;;;;;;;-6.95;100.00;100897.58;1692762;82;21080;-71
2022/01/08 01:52:24;;;;;;;61.47;23.70;;;;;;;-6.96;100.00;100900.55;1674859;84;21158;-72
2022/01/08 01:54:51;;;;;;;63.43;23.13;;;;;;;-6.99;100.00;100888.89;1691740;84;21556;-71
2022/01/08 01:57:19;;;;;;;58.43;23.23;;;;;;;-7.01;100.00;100895.63;1694102;84;21441;-72
2022/01/08 01:59:46;;;;;;;62.57;23.30;;;;;;;-7.01;100.00;100902.02;1694669;84;21679;-70
2022/01/08 02:02:13;;;;;;;69.57;24.53;;;;;;;-7.02;100.00;100903.22;1706831;81;21018;-71
2022/01/08 02:04:40;;;;;;;62.73;23.93;;;;;;;-7.05;100.00;100916.77;1726795;82;21420;-74
2022/01/08 02:07:08;;;;;;;54.40;22.27;;;;;;;-7.09;100.00;100917.42;1691664;84;21468;-74
2022/01/08 02:09:37;;;;;;;63.20;23.93;;;;;;;-7.08;100.00;100919.20;1726582;83;21167;-74
2022/01/08 02:12:14;;;;;;;65.60;24.57;;;;;;;-7.11;100.00;100930.95;1726375;82;21032;-74
2022/01/08 02:14:39;;;;;;;68.27;26.93;;;;;;;-7.15;100.00;100929.95;1726339;82;21053;-72
2022/01/08 02:17:08;;;;;;;62.27;25.90;;;;;;;-7.14;100.00;100921.45;1726405;82;21020;-71
2022/01/08 02:19:34;;;;;;;69.87;26.60;;;;;;;-7.11;100.00;100920.30;1726508;83;21127;-72
2022/01/08 02:22:04;;;;;;;65.50;25.90;;;;;;;-7.05;100.00;100916.77;1691301;84;21092;-72
2022/01/08 02:24:32;;;;;;;71.23;26.20;;;;;;;-6.98;100.00;100923.05;1691467;84;21037;-72
2022/01/08 02:26:58;;;;;;;67.47;26.13;;;;;;;-6.96;100.00;100919.75;1691719;84;21516;-74
2022/01/08 02:29:26;;;;;;;60.10;24.70;;;;;;;-6.93;100.00;100915.58;1688659;85;21040;-71
2022/01/08 02:32:04;;;;;;;68.47;24.67;;;;;;;-6.91;100.00;100916.53;1689024;85;20975;-72
2022/01/08 02:34:33;;;;;;;64.42;22.62;;;;;;;-6.89;100.00;100917.48;1686349;85;21479;-72
2022/01/08 02:36:59;;;;;;;65.63;22.07;;;;;;;-6.90;100.00;100905.09;1686101;84;21023;-73
2022/01/08 02:40:35;;;;;;;63.37;24.30;;;;;;;-6.82;100.00;100911.83;1800138;79;22335;-72
2022/01/08 02:43:04;;;;;;;61.63;23.20;;;;;;;-6.87;100.00;100905.22;1759533;81;20903;-71
2022/01/08 02:45:30;;;;;;;63.03;22.40;;;;;;;-6.88;100.00;100910.26;1759432;81;21126;-72
2022/01/08 02:47:58;;;;;;;54.77;20.60;;;;;;;-6.89;100.00;100917.48;1759042;81;21037;-72
2022/01/08 02:50:25;;;;;;;60.87;23.93;;;;;;;-6.99;100.00;100905.53;1759541;81;21043;-72
2022/01/08 02:52:52;;;;;;;51.20;22.03;;;;;;;-6.93;100.00;100911.33;1759015;81;21456;-71
2022/01/08 02:55:20;;;;;;;61.47;25.47;;;;;;;-6.97;100.00;100906.48;1759511;81;21001;-71
2022/01/08 02:57:47;;;;;;;52.87;17.80;;;;;;;-6.99;100.00;100894.42;1757605;81;21592;-71
2022/01/08 03:00:18;;;;;;;66.47;26.17;;;;;;;-7.07;100.00;100899.58;1756821;81;20871;-73
2022/01/08 03:02:48;;;;;;;62.75;22.87;;;;;;;-7.02;100.00;100904.09;1766521;81;21037;-74
2022/01/08 03:05:14;;;;;;;48.23;17.82;;;;;;;-7.02;100.00;100906.66;1755657;81;21561;-73
2022/01/08 03:07:44;;;;;;;59.83;25.27;;;;;;;-7.01;100.00;100921.23;1754381;81;21106;-71
2022/01/08 03:10:14;;;;;;;53.93;23.43;;;;;;;-7.02;100.00;100911.77;1746977;82;21596;-71
2022/01/08 03:12:43;;;;;;;60.95;24.67;;;;;;;-7.04;100.00;100907.02;1747589;82;21710;-72
2022/01/08 03:15:21;;;;;;;64.85;24.37;;;;;;;-7.05;100.00;100905.66;1747495;82;28419;-73
2022/01/08 03:17:48;;;;;;;65.37;25.50;;;;;;;-7.08;100.00;100905.11;1747318;82;21062;-72
2022/01/08 03:20:15;;;;;;;49.50;22.60;;;;;;;-7.12;100.00;100906.18;1747406;82;21069;-73
2022/01/08 03:22:45;;;;;;;58.97;21.37;;;;;;;-7.13;100.00;100907.87;1747563;82;21525;-73
2022/01/08 03:25:11;;;;;;;59.57;25.37;;;;;;;-7.14;100.00;100901.39;1747288;82;21052;-71
2022/01/08 03:27:41;;;;;;;49.90;21.13;;;;;;;-7.19;100.00;100893.49;1740634;82;21116;-70
2022/01/08 03:30:09;;;;;;;45.03;20.87;;;;;;;-7.20;100.00;100903.23;1720142;82;21857;-69
2022/01/08 03:32:36;;;;;;;55.97;22.13;;;;;;;-7.22;100.00;100907.44;1722002;82;21116;-67
2022/01/08 03:35:04;;;;;;;50.43;22.37;;;;;;;-7.22;100.00;100908.72;1737504;82;21198;-68
2022/01/08 03:37:30;;;;;;;51.10;22.67;;;;;;;-7.25;100.00;100907.27;1747600;82;21128;-69
2022/01/08 03:39:57;;;;;;;58.33;20.80;;;;;;;-7.31;100.00;100900.20;1737975;82;21066;-68
2022/01/08 03:42:24;;;;;;;54.57;21.93;;;;;;;-7.34;100.00;100903.00;1728317;82;21030;-68
2022/01/08 03:44:50;;;;;;;42.63;19.40;;;;;;;-7.36;100.00;100904.61;1669372;85;21081;-69
2022/01/08 03:49:52;;;;;;;40.57;17.90;;;;;;;-7.40;100.00;100912.15;1732417;82;21141;-68
2022/01/08 03:52:20;;;;;;;30.30;14.60;;;;;;;-7.41;100.00;100905.66;1669162;86;21074;-66
2022/01/08 03:54:47;;;;;;;38.63;18.20;;;;;;;-7.36;100.00;100913.56;1723850;82;21093;-68
2022/01/08 03:57:14;;;;;;;30.17;14.13;;;;;;;-7.30;100.00;100911.30;1713319;82;21542;-67
2022/01/08 03:59:40;;;;;;;33.63;16.87;;;;;;;-7.23;100.00;100915.91;1703899;82;21158;-69
2022/01/08 04:02:06;;;;;;;37.57;15.63;;;;;;;-7.18;100.00;100911.87;1690265;84;21158;-71
2022/01/08 04:04:33;;;;;;;34.13;15.00;;;;;;;-7.13;100.00;100904.03;1689309;84;21036;-72
2022/01/08 04:06:59;;;;;;;33.80;14.17;;;;;;;-7.09;100.00;100908.88;1689644;84;21044;-68
2022/01/08 04:09:26;;;;;;;32.93;14.40;;;;;;;-7.03;100.00;100907.47;1689319;84;21091;-67
2022/01/08 04:11:55;;;;;;;33.57;15.17;;;;;;;-6.96;100.00;100917.19;1696464;82;21042;-71
2022/01/08 04:14:21;;;;;;;32.90;13.80;;;;;;;-6.94;100.00;100915.13;1702894;83;21023;-72
2022/01/08 04:16:52;;;;;;;33.30;14.00;;;;;;;-6.96;100.00;100913.34;1712816;82;21058;-71
2022/01/08 04:19:19;;;;;;;36.30;15.70;;;;;;;-6.96;100.00;100916.32;1716194;82;21073;-69
2022/01/08 04:24:26;;;;;;;40.70;18.23;;;;;;;-6.96;100.00;100920.16;1712266;82;21182;-65
2022/01/08 04:26:54;;;;;;;41.45;19.17;;;;;;;-6.98;100.00;100912.40;1709486;82;21133;-68
2022/01/08 04:29:21;;;;;;;42.93;19.37;;;;;;;-6.99;100.00;100911.94;1708701;82;21046;-67
2022/01/08 04:31:47;;;;;;;41.07;18.57;;;;;;;-6.96;100.00;100900.95;1713194;82;21054;-69
2022/01/08 04:34:15;;;;;;;41.57;19.57;;;;;;;-6.98;100.00;100885.52;1712744;82;21069;-68
2022/01/08 04:36:43;;;;;;;43.53;19.67;;;;;;;-7.03;100.00;100875.47;1707133;82;21129;-68
2022/01/08 04:39:09;;;;;;;48.47;21.53;;;;;;;-7.09;100.00;100869.19;1721121;81;21112;-67
2022/01/08 04:41:36;;;;;;;52.57;21.93;;;;;;;-7.15;100.00;100861.22;1729737;82;22213;-67
2022/01/08 04:44:06;;;;;;;44.90;18.87;;;;;;;-7.19;100.00;100874.30;1725609;82;21605;-67
2022/01/08 04:46:33;;;;;;;40.50;17.42;;;;;;;-7.28;100.00;100876.42;1728098;82;21605;-68
2022/01/08 04:48:59;;;;;;;39.87;17.33;;;;;;;-7.27;100.00;100882.00;1726238;82;21123;-70
2022/01/08 04:51:26;;;;;;;37.50;16.83;;;;;;;-7.33;100.00;100889.42;1717439;83;21017;-69
2022/01/08 04:53:54;;;;;;;38.90;17.27;;;;;;;-7.39;100.00;100898.95;1727971;82;21080;-69
2022/01/08 04:56:21;;;;;;;35.50;16.27;;;;;;;-7.41;100.00;100918.46;1717486;83;21053;-70
2022/01/08 04:58:47;;;;;;;28.87;14.70;;;;;;;-7.40;100.00;100909.59;1717759;83;21080;-70
2022/01/08 05:01:15;;;;;;;30.67;13.77;;;;;;;-7.37;100.00;100909.27;1718074;83;21786;-70
2022/01/08 05:03:42;;;;;;;30.70;14.23;;;;;;;-7.35;100.00;100902.54;1699328;82;21085;-70
2022/01/08 05:06:08;;;;;;;30.50;13.80;;;;;;;-7.32;100.00;100903.95;1723427;82;21639;-69
2022/01/08 05:08:36;;;;;;;28.20;11.87;;;;;;;-7.28;100.00;100908.42;1680846;85;21080;-68
2022/01/08 05:11:03;;;;;;;33.27;14.53;;;;;;;-7.22;100.00;100911.28;1717787;83;21671;-69
2022/01/08 05:13:29;;;;;;;28.50;13.10;;;;;;;-7.19;100.00;100915.25;1672506;85;21091;-69
2022/01/08 05:15:57;;;;;;;30.27;13.13;;;;;;;-7.15;100.00;100917.16;1731647;82;21077;-68
2022/01/08 05:18:25;;;;;;;33.00;14.43;;;;;;;-7.14;100.00;100912.50;1734893;82;21115;-68
2022/01/08 05:20:58;;;;;;;30.83;13.30;;;;;;;-7.13;100.00;100921.95;1719090;83;21537;-69
2022/01/08 05:23:19;;;;;;;33.27;15.57;;;;;;;-7.14;100.00;100918.89;1717263;83;21033;-69
2022/01/08 05:25:46;;;;;;;32.83;13.77;;;;;;;-7.12;100.00;100923.69;1729905;82;21525;-70
2022/01/08 05:28:13;;;;;;;30.73;14.13;;;;;;;-7.11;100.00;100920.30;1731380;82;21014;-68
2022/01/08 05:30:40;;;;;;;40.33;16.10;;;;;;;-7.11;100.00;100912.63;1730863;82;21609;-69
2022/01/08 05:33:06;;;;;;;41.03;16.70;;;;;;;-7.11;100.00;100920.72;1722162;82;22135;-69
2022/01/08 05:35:33;;;;;;;36.20;15.30;;;;;;;-7.15;100.00;100927.39;1717771;82;21091;-69
2022/01/08 05:37:59;;;;;;;44.23;18.07;;;;;;;-7.20;100.00;100931.39;1717688;83;21130;-69
2022/01/08 05:40:26;;;;;;;44.30;17.93;;;;;;;-7.24;100.00;100929.52;1715257;82;21047;-70
2022/01/08 05:42:52;;;;;;;39.00;17.90;;;;;;;-7.29;100.00;100936.08;1668695;86;21089;-70
2022/01/08 05:45:19;;;;;;;45.73;18.33;;;;;;;-7.33;100.00;100936.77;1668878;86;21094;-69
2022/01/08 05:47:46;;;;;;;35.10;16.40;;;;;;;-7.41;100.00;100939.84;1669152;86;21106;-69
2022/01/08 05:50:13;;;;;;;35.77;15.73;;;;;;;-7.44;100.00;100934.55;1668954;86;21137;-70
2022/01/08 05:52:39;;;;;;;44.63;17.53;;;;;;;-7.44;100.00;100934.55;1669498;85;21106;-69
2022/01/08 05:55:07;;;;;;;39.87;15.80;;;;;;;-7.46;100.00;100935.28;1731988;82;21133;-70
2022/01/08 05:57:34;;;;;;;38.87;17.03;;;;;;;-7.47;100.00;100947.20;1724298;81;21054;-70
2022/01/08 06:00:01;;;;;;;38.67;15.47;;;;;;;-7.46;100.00;100939.12;1704413;82;21057;-70
2022/01/08 06:02:30;;;;;;;29.25;14.60;;;;;;;-7.46;100.00;100941.27;1665108;85;21149;-69
2022/01/08 06:04:56;;;;;;;40.53;15.60;;;;;;;-7.43;100.00;100938.87;1678493;85;21090;-69
2022/01/08 06:07:23;;;;;;;44.20;16.07;;;;;;;-7.39;100.00;100943.31;1671404;85;21636;-70
2022/01/08 06:09:50;;;;;;;35.80;16.37;;;;;;;-7.34;100.00;100950.34;1658994;85;21586;-68
2022/01/08 06:12:16;;;;;;;33.47;16.33;;;;;;;-7.37;100.00;100945.09;1646031;87;21137;-69
2022/01/08 06:14:42;;;;;;;31.93;15.07;;;;;;;-7.39;100.00;100952.27;1645773;87;21527;-70
2022/01/08 06:17:10;;;;;;;31.93;14.97;;;;;;;-7.43;100.00;100952.95;1646956;87;21007;-69
2022/01/08 06:19:38;;;;;;;29.80;14.47;;;;;;;-7.44;100.00;100949.90;1650343;87;21023;-69
2022/01/08 06:22:04;;;;;;;35.57;14.27;;;;;;;-7.45;100.00;100953.28;1649194;87;21054;-70
2022/01/08 06:24:32;;;;;;;34.53;15.63;;;;;;;-7.43;100.00;100955.52;1658066;85;20979;-69
2022/01/08 06:26:58;;;;;;;43.20;16.77;;;;;;;-7.37;100.00;100955.33;1657558;85;21893;-70
2022/01/08 06:29:25;;;;;;;45.07;16.53;;;;;;;-7.33;100.00;100959.80;1669350;85;21286;-69
2022/01/08 06:31:51;;;;;;;40.77;17.27;;;;;;;-7.30;100.00;100968.89;1645661;85;21177;-68
2022/01/08 06:34:18;;;;;;;34.20;15.87;;;;;;;-7.26;100.00;100970.80;1668159;85;21495;-72
2022/01/08 06:36:47;;;;;;;33.37;15.60;;;;;;;-7.20;100.00;100959.55;1668047;85;21129;-73
2022/01/08 06:39:15;;;;;;;36.30;15.00;;;;;;;-7.14;100.00;100956.02;1665315;85;21785;-70
2022/01/08 06:41:42;;;;;;;30.63;14.73;;;;;;;-7.06;100.00;100959.83;1686198;84;21087;-71
2022/01/08 06:44:08;;;;;;;30.00;15.00;;;;;;;-7.00;100.00;100966.50;1659212;86;21683;-71
2022/01/08 06:46:35;;;;;;;40.43;15.83;;;;;;;-6.92;100.00;100963.41;1707686;83;21060;-71
2022/01/08 06:49:01;;;;;;;32.03;15.30;;;;;;;-6.87;100.00;100956.84;1704728;83;21045;-72
2022/01/08 06:51:28;;;;;;;36.67;16.40;;;;;;;-6.81;100.00;100962.23;1712628;83;21958;-72
2022/01/08 06:53:54;;;;;;;38.77;15.47;;;;;;;-6.76;100.00;100962.94;1704497;83;21124;-73
2022/01/08 06:56:21;;;;;;;33.90;15.10;;;;;;;-6.71;100.00;100961.87;1716032;83;21089;-71
2022/01/08 06:58:47;;;;;;;37.33;14.83;;;;;;;-6.65;100.00;100963.41;1717908;83;21081;-72
2022/01/08 07:01:14;;;;;;;43.17;16.40;;;;;;;-6.57;100.00;100974.90;1701444;83;21620;-73
2022/01/08 07:03:40;;;;;;;35.33;15.87;;;;;;;-6.49;100.00;100970.52;1693413;83;21138;-73
2022/01/08 07:06:07;;;;;;;33.17;15.90;;;;;;;-6.43;100.00;100970.80;1693026;84;21983;-72
2022/01/08 07:08:33;;;;;;;33.97;15.83;;;;;;;-6.34;100.00;100978.91;1693050;84;21084;-72
2022/01/08 07:10:59;;;;;;;30.90;15.13;;;;;;;-6.25;100.00;100975.47;1694973;83;21498;-73
2022/01/08 07:13:26;;;;;;;29.07;14.03;;;;;;;-6.17;100.00;100970.26;1721853;83;21053;-73
2022/01/08 07:15:52;;;;;;;35.33;13.10;;;;;;;-6.05;100.00;100976.73;1713560;82;21155;-72
2022/01/08 07:18:18;;;;;;;28.47;14.20;;;;;;;-5.93;100.00;100972.13;1701372;83;22168;-72
2022/01/08 07:20:45;;;;;;;31.07;13.47;;;;;;;-5.83;100.00;100969.13;1709501;83;21116;-72
2022/01/08 07:23:12;;;;;;;30.73;13.63;;;;;;;-5.42;100.00;100967.41;1717646;83;21117;-73
2022/01/08 07:25:38;;;;;;;31.57;13.70;;;;;;;-4.68;100.00;100970.31;1713484;83;21135;-72
2022/01/08 07:28:06;;;;;;;27.90;13.57;;;;;;;-3.84;100.00;100963.09;1707999;83;21221;-71
2022/01/08 07:30:32;;;;;;;26.62;13.08;;;;;;;-3.03;100.00;100951.14;1713996;83;21071;-71
2022/01/08 07:32:58;;;;;;;27.35;13.62;;;;;;;-2.21;100.00;100951.81;1713011;83;21135;-70
2022/01/08 07:35:25;;;;;;;28.23;13.32;;;;;;;-1.43;100.00;100946.55;1709199;83;21060;-72
2022/01/08 07:37:51;;;;;;;26.65;13.30;;;;;;;-0.77;100.00;100941.64;1705834;83;21580;-71
2022/01/08 07:40:24;;;;;;;32.13;14.28;;;;;;;-0.09;100.00;100937.42;1717641;83;21886;-71
2022/01/08 07:42:51;;;;;;;29.72;14.20;;;;;;;0.60;88.74;100939.55;1714347;83;21088;-71
2022/01/08 07:45:18;;;;;;;26.85;13.22;;;;;;;1.13;87.14;100941.63;1716379;83;21080;-73
2022/01/08 07:47:45;;;;;;;29.98;13.80;;;;;;;1.61;80.93;100945.75;1723249;83;21032;-73
2022/01/08 07:50:12;;;;;;;26.10;13.25;;;;;;;1.87;76.83;100936.56;1724499;83;21751;-72
2022/01/08 07:52:38;;;;;;;23.30;12.28;;;;;;;2.01;72.85;100945.80;1724759;83;21492;-73
2022/01/08 07:55:06;;;;;;;22.95;12.33;;;;;;;2.33;73.07;100931.41;1719419;83;21042;-72
2022/01/08 07:57:32;;;;;;;24.23;11.93;;;;;;;2.63;67.06;100935.57;1717290;83;21150;-72
2022/01/08 07:59:58;;;;;;;23.40;12.23;;;;;;;2.91;65.94;100938.38;1702299;83;21045;-72
2022/01/08 08:02:25;;;;;;;23.47;12.95;;;;;;;3.35;65.52;100932.58;1716187;83;21052;-72
2022/01/08 08:04:51;;;;;;;21.10;12.25;;;;;;;3.71;62.83;100924.08;1715657;83;22150;-72
2022/01/08 08:07:38;;;;;;;22.15;11.78;;;;;;;3.85;60.29;100931.94;1717739;83;21072;-72
2022/01/08 08:10:10;;;;;;;22.55;12.28;;;;;;;3.98;59.37;100933.72;1708778;83;21122;-72
2022/01/08 08:12:39;;;;;;;;;;;;;;;4.28;57.74;100929.85;1713683;83;21092;-77
2022/01/08 08:15:08;;;;;;;15.70;9.70;;;;;;;4.32;55.44;100927.70;1699955;83;20501;-72
2022/01/08 08:17:36;;;;;;;17.23;9.68;;;;;;;4.31;54.36;100925.53;1695346;84;21998;-72
2022/01/08 08:20:04;;;;;;;19.57;10.72;;;;;;;4.61;54.19;100919.46;1695487;83;21076;-74
2022/01/08 08:22:31;;;;;;;19.62;10.13;;;;;;;4.91;54.66;100915.54;1703672;83;21055;-72
2022/01/08 08:24:57;;;;;;;20.12;10.25;;;;;;;5.23;51.05;100912.42;1712589;83;21349;-73
2022/01/08 08:27:24;;;;;;;17.05;9.25;;;;;;;5.35;50.66;100919.80;1713733;83;21033;-73
2022/01/08 08:29:50;;;;;;;18.37;9.08;;;;;;;5.53;50.00;100928.87;1724120;83;21120;-73
2022/01/08 08:32:16;;;;;;;16.60;8.90;;;;;;;5.41;48.69;100919.78;1708796;83;21052;-72
2022/01/08 08:34:43;;;;;;;19.00;8.43;;;;;;;5.33;49.27;100922.84;1694333;84;21599;-73
2022/01/08 08:37:09;;;;;;;17.37;9.68;;;;;;;5.19;49.14;100915.91;1694785;84;21674;-73
2022/01/08 08:39:38;;;;;;;18.48;9.68;;;;;;;5.49;50.38;100921.05;1694841;84;21142;-73
2022/01/08 08:42:05;;;;;;;14.85;8.23;;;;;;;5.87;49.89;100909.14;1714934;82;22153;-74
2022/01/08 08:44:32;;;;;;;14.75;8.05;;;;;;;6.15;46.82;100903.78;1711826;83;21440;-72
2022/01/08 08:46:59;;;;;;;17.30;8.73;;;;;;;6.03;46.35;100900.36;1712302;83;21041;-72
2022/01/08 08:49:26;;;;;;;15.70;8.13;;;;;;;6.09;46.92;100901.61;1712170;83;21042;-74
2022/01/08 08:51:54;;;;;;;15.43;8.38;;;;;;;6.29;47.09;100900.63;1715439;82;21555;-73
2022/01/08 08:54:20;;;;;;;12.47;6.67;;;;;;;6.53;46.64;100896.08;1716119;82;21084;-74
2022/01/08 08:56:48;;;;;;;13.55;7.87;;;;;;;6.50;46.11;100899.59;1712094;83;21049;-74
2022/01/08 08:59:15;;;;;;;10.75;6.40;;;;;;;6.47;45.26;100895.25;1712264;83;21068;-72
2022/01/08 09:01:42;;;;;;;15.58;7.60;;;;;;;6.50;45.80;100899.14;1712069;83;21527;-73
2022/01/08 09:04:10;;;;;;;12.10;7.70;;;;;;;6.17;43.99;100896.80;1718694;82;21033;-71
2022/01/08 09:06:38;;;;;;;13.98;7.80;;;;;;;5.65;44.69;100892.23;1722256;82;21130;-75
2022/01/08 09:09:04;;;;;;;12.23;6.12;;;;;;;5.55;46.08;100889.24;1712510;83;21069;-73
2022/01/08 09:11:30;;;;;;;10.78;6.30;;;;;;;5.46;45.21;100886.67;1712154;83;21054;-73
2022/01/08 09:13:57;;;;;;;12.18;5.67;;;;;;;5.46;45.44;100890.14;1712166;83;21065;-72
2022/01/08 09:16:24;;;;;;;11.60;6.20;;;;;;;5.43;44.76;100881.02;1739470;82;21017;-73
2022/01/08 09:18:51;;;;;;;13.70;6.12;;;;;;;5.45;44.99;100886.22;1736136;82;21149;-75
2022/01/08 09:21:18;;;;;;;16.10;6.62;;;;;;;5.43;43.92;100883.64;1726858;82;21038;-73
2022/01/08 09:23:44;;;;;;;10.60;5.90;;;;;;;5.23;43.81;100890.22;1741565;82;21021;-73
2022/01/08 09:26:11;;;;;;;11.53;5.67;;;;;;;5.29;44.51;100874.09;1733111;82;21224;-73
2022/01/08 09:28:38;;;;;;;12.80;5.15;;;;;;;5.30;43.03;100869.32;1725996;82;20997;-73
2022/01/08 09:31:04;;;;;;;15.45;6.50;;;;;;;5.45;43.60;100869.23;1727396;82;21495;-74
2022/01/08 09:33:32;;;;;;;10.35;5.62;;;;;;;5.42;43.34;100863.59;1732557;82;21041;-73
2022/01/08 09:35:58;;;;;;;15.35;6.45;;;;;;;5.36;43.57;100858.83;1723051;82;22104;-73
2022/01/08 09:38:25;;;;;;;16.27;6.28;;;;;;;5.46;42.89;100869.69;1681546;84;21066;-74
2022/01/08 09:40:51;;;;;;;13.03;5.97;;;;;;;5.46;42.90;100864.02;1711298;82;21030;-75
2022/01/08 09:43:17;;;;;;;12.98;5.97;;;;;;;5.29;42.54;100862.34;1713613;82;21489;-73
2022/01/08 09:45:44;;;;;;;16.00;7.60;;;;;;;5.01;43.33;100857.20;1733351;82;21010;-73
2022/01/08 09:48:11;;;;;;;13.35;6.15;;;;;;;5.38;44.35;100849.25;1733364;82;21046;-73
2022/01/08 09:50:37;;;;;;;11.50;5.40;;;;;;;5.74;42.74;100835.13;1733643;82;21030;-73
2022/01/08 09:53:05;;;;;;;10.75;5.47;;;;;;;5.63;43.25;100831.27;1733455;82;21034;-73
2022/01/08 09:55:32;;;;;;;10.45;5.50;;;;;;;5.44;42.24;100845.31;1733524;82;21885;-74
2022/01/08 09:57:59;;;;;;;13.22;4.87;;;;;;;4.89;43.25;100832.45;1733518;82;21034;-74
2022/01/08 10:00:26;;;;;;;11.40;4.97;;;;;;;4.64;43.72;100832.48;1733418;82;21081;-74
2022/01/08 10:02:52;;;;;;;9.85;5.12;;;;;;;4.49;43.54;100831.23;1733568;82;21025;-74
2022/01/08 10:05:19;;;;;;;10.45;4.62;;;;;;;4.75;44.11;100821.59;1733617;82;21034;-74
2022/01/08 10:07:59;;;;;;;7.10;3.92;;;;;;;5.03;43.15;100816.30;1733455;82;21133;-75
2022/01/08 10:10:27;;;;;;;11.63;4.97;;;;;;;4.63;43.25;100816.42;1733694;82;21030;-75
2022/01/08 10:13:00;;;;;;;4.97;2.95;;;;;;;3.94;44.39;100813.83;1733507;82;21105;-75
2022/01/08 10:18:35;;;;;;;6.55;3.58;;;;;;;3.41;45.96;100818.06;1733839;82;21097;-74
2022/01/08 10:21:20;;;;;;;13.70;5.42;;;;;;;3.43;45.83;100805.92;1733422;82;21602;-74
2022/01/08 10:23:57;;;;;;;15.95;4.87;;;;;;;3.51;46.67;100813.30;1731079;82;21272;-73
2022/01/08 10:26:32;;;;;;;10.38;4.50;;;;;;;3.57;45.53;100809.42;1702981;82;21042;-72
2022/01/08 10:29:08;;;;;;;9.20;4.67;;;;;;;3.49;45.78;100803.31;1718948;82;21093;-74
2022/01/08 10:31:47;;;;;;;8.23;4.65;;;;;;;3.33;45.37;100809.34;1710255;82;21054;-75
2022/01/08 10:34:21;;;;;;;10.95;4.42;;;;;;;3.54;45.69;100795.09;1715377;82;21990;-74
2022/01/08 10:36:56;;;;;;;8.43;4.28;;;;;;;3.77;45.55;100799.05;1714727;82;21570;-74
2022/01/08 10:39:29;;;;;;;9.80;5.08;;;;;;;3.41;45.95;100805.48;1717199;82;21101;-72
2022/01/08 10:41:59;;;;;;;10.15;4.67;;;;;;;3.14;46.14;100792.35;1715368;82;21563;-76
2022/01/08 10:44:32;;;;;;;12.15;4.37;;;;;;;2.86;47.38;100785.30;1708547;82;21034;-74
2022/01/08 10:47:05;;;;;;;17.95;5.62;;;;;;;2.88;48.46;100781.84;1705936;82;21121;-73
2022/01/08 10:49:45;;;;;;;13.68;4.80;;;;;;;3.24;48.01;100791.08;1726072;82;21570;-74
2022/01/08 10:52:18;;;;;;;13.30;5.80;;;;;;;3.13;46.43;100784.12;1729065;82;21652;-74
2022/01/08 10:54:48;;;;;;;11.18;5.65;;;;;;;3.46;47.08;100787.69;1728811;82;21076;-72
2022/01/08 10:57:15;;;;;;;16.70;6.78;;;;;;;3.70;46.68;100784.69;1726219;82;21037;-72
2022/01/08 10:59:42;;;;;;;16.32;5.90;;;;;;;3.68;45.57;100786.01;1729033;81;21111;-71
2022/01/08 11:02:13;;;;;;;12.50;5.58;;;;;;;3.37;45.77;100788.97;1726840;82;21058;-71
2022/01/08 11:04:52;;;;;;;14.45;6.12;;;;;;;2.97;46.38;100782.32;1707573;82;21568;-72
2022/01/08 11:07:28;;;;;;;13.08;4.83;;;;;;;2.68;47.68;100786.92;1714903;82;21079;-70
2022/01/08 11:09:59;;;;;;;11.28;4.47;;;;;;;2.76;48.62;100788.70;1724468;82;21092;-71
2022/01/08 11:12:32;;;;;;;10.68;3.77;;;;;;;2.57;47.31;100784.69;1725586;82;21573;-72
2022/01/08 11:17:49;;;;;;;10.45;4.40;;;;;;;2.84;47.32;100770.11;1725188;82;21065;-71
2022/01/08 11:20:21;;;;;;;14.50;5.15;;;;;;;3.04;46.30;100764.56;1719534;82;21037;-71
2022/01/08 11:22:51;;;;;;;11.45;5.50;;;;;;;3.11;46.04;100762.42;1729369;82;21598;-69
2022/01/08 11:25:23;;;;;;;12.23;4.93;;;;;;;3.25;45.92;100756.40;1723473;82;22053;-70
2022/01/08 11:28:15;;;;;;;11.70;4.60;;;;;;;3.45;45.52;100743.41;1722879;82;21057;-72
2022/01/08 11:30:56;;;;;;;7.37;3.33;;;;;;;3.56;45.26;100756.02;1670549;85;21148;-71
2022/01/08 11:33:26;;;;;;;12.45;4.50;;;;;;;3.58;44.34;100760.36;1705094;84;21601;-70
2022/01/08 11:35:51;;;;;;;8.98;4.30;;;;;;;3.11;45.38;100748.11;1665151;85;21100;-71
2022/01/08 11:38:21;;;;;;;12.60;5.37;;;;;;;3.00;46.35;100730.28;1708180;82;21168;-74
2022/01/08 11:40:50;;;;;;;18.87;5.15;;;;;;;3.11;45.86;100725.13;1704871;84;21062;-76
2022/01/08 11:43:20;;;;;;;12.82;3.77;;;;;;;3.21;45.57;100726.01;1715626;83;21080;-73